Time;durP1;ratioP1;P1;durP2;ratioP2;P2;SDS_P1;SDS_P2;PMS_P1;PMS_P2;Temp;Humidity;BMP_temperature;BMP_pressure;BME280_temperature;BME280_humidity;BME280_pressure;Samples;Min_cycle;Max_cycle;Signal;HPM_P1;HPM_P2
2024/01/10 00:01:33;;;;;;;19.70;12.15;;;2.80;99.90;;;;;;5055482;28;20037;-76
2024/01/10 00:03:59;;;;;;;19.98;11.73;;;2.80;99.90;;;;;;5053178;28;20114;-75
2024/01/10 00:06:24;;;;;;;19.92;11.73;;;2.70;99.90;;;;;;5058442;28;20044;-74
2024/01/10 00:08:50;;;;;;;17.42;10.43;;;2.70;99.90;;;;;;5058988;28;20033;-75
2024/01/10 00:11:16;;;;;;;19.65;11.88;;;2.70;99.90;;;;;;5052619;28;20780;-75
2024/01/10 00:13:42;;;;;;;18.08;11.55;;;2.80;99.90;;;;;;5060010;28;21652;-74
2024/01/10 00:16:07;;;;;;;17.98;11.27;;;2.90;99.90;;;;;;5057155;28;20040;-75
2024/01/10 00:18:34;;;;;;;16.95;11.38;;;2.90;99.90;;;;;;5060380;28;20066;-74
2024/01/10 00:20:59;;;;;;;19.15;12.05;;;3.00;99.90;;;;;;5074241;28;20027;-75
2024/01/10 00:23:25;;;;;;;20.75;10.55;;;2.90;99.90;;;;;;5070705;28;20029;-75
2024/01/10 00:25:51;;;;;;;18.88;11.00;;;3.00;99.90;;;;;;5056183;28;20870;-75
2024/01/10 00:28:17;;;;;;;18.63;10.85;;;3.10;99.90;;;;;;5065458;28;20127;-75
2024/01/10 00:30:48;;;;;;;17.25;10.43;;;3.10;99.90;;;;;;5057228;28;20086;-75
2024/01/10 00:33:14;;;;;;;22.13;12.77;;;3.10;99.90;;;;;;5065735;28;20137;-75
2024/01/10 00:35:39;;;;;;;20.35;11.02;;;3.10;99.90;;;;;;5068685;28;20037;-75
2024/01/10 00:38:05;;;;;;;18.63;11.30;;;3.10;99.90;;;;;;5062771;28;20106;-75
2024/01/10 00:40:31;;;;;;;19.35;11.48;;;3.00;99.90;;;;;;5061447;28;20039;-75
2024/01/10 00:42:56;;;;;;;18.38;11.07;;;3.00;99.90;;;;;;5059467;28;20417;-75
2024/01/10 00:45:22;;;;;;;20.30;13.07;;;3.10;99.90;;;;;;5068655;28;20036;-76
2024/01/10 00:47:51;;;;;;;21.02;12.38;;;3.00;99.90;;;;;;5057953;28;20059;-75
2024/01/10 00:50:17;;;;;;;17.50;11.10;;;3.00;99.90;;;;;;5068488;28;20040;-75
2024/01/10 00:52:44;;;;;;;17.27;11.13;;;3.00;99.90;;;;;;5057387;28;20125;-75
2024/01/10 00:55:10;;;;;;;18.33;11.57;;;3.00;99.90;;;;;;5066670;28;20036;-75
2024/01/10 00:57:37;;;;;;;18.67;11.93;;;3.00;99.90;;;;;;5069599;28;20509;-75
2024/01/10 01:00:07;;;;;;;19.40;11.75;;;3.00;99.90;;;;;;5061952;28;20131;-75
2024/01/10 01:02:33;;;;;;;19.88;10.95;;;3.10;99.90;;;;;;5063986;28;20063;-75
2024/01/10 01:04:58;;;;;;;20.10;10.88;;;3.10;99.90;;;;;;5061241;28;20140;-76
2024/01/10 01:07:24;;;;;;;19.20;11.35;;;3.10;99.90;;;;;;5068643;28;20041;-75
2024/01/10 01:09:53;;;;;;;21.98;13.10;;;3.10;99.90;;;;;;5066881;28;20123;-76
2024/01/10 01:12:18;;;;;;;21.98;11.45;;;3.10;99.90;;;;;;5063145;28;20068;-74
2024/01/10 01:14:44;;;;;;;18.50;11.43;;;3.10;99.90;;;;;;5058934;28;20118;-76
2024/01/10 01:17:10;;;;;;;20.30;11.25;;;3.10;99.90;;;;;;5068759;28;20071;-75
2024/01/10 01:19:35;;;;;;;19.13;11.65;;;3.10;99.90;;;;;;5063624;28;20036;-75
2024/01/10 01:22:01;;;;;;;19.33;12.02;;;3.10;99.90;;;;;;5066190;28;20035;-76
2024/01/10 01:24:27;;;;;;;22.83;14.05;;;3.20;99.90;;;;;;5058520;28;20028;-75
2024/01/10 01:26:52;;;;;;;18.73;12.23;;;3.10;99.90;;;;;;5061592;28;20520;-75
2024/01/10 01:29:19;;;;;;;23.83;13.55;;;3.00;99.90;;;;;;5061707;28;20705;-75
2024/01/10 01:31:44;;;;;;;20.30;12.88;;;3.00;99.90;;;;;;5062757;28;20024;-75
2024/01/10 01:34:10;;;;;;;23.60;13.52;;;3.00;99.90;;;;;;5059431;28;21056;-76
2024/01/10 01:36:35;;;;;;;21.08;12.15;;;3.00;99.90;;;;;;5062001;28;20036;-75
2024/01/10 01:39:01;;;;;;;19.90;13.13;;;3.00;99.90;;;;;;5057503;28;20139;-75
2024/01/10 01:41:27;;;;;;;18.52;11.43;;;3.00;99.90;;;;;;5058619;28;20062;-75
2024/01/10 01:43:52;;;;;;;20.30;13.07;;;2.90;99.90;;;;;;5070953;28;20060;-75
2024/01/10 01:46:18;;;;;;;20.25;12.23;;;2.90;99.90;;;;;;5065488;28;20032;-76
2024/01/10 01:48:45;;;;;;;18.90;11.82;;;2.80;99.90;;;;;;5071037;28;20043;-76
2024/01/10 01:51:14;;;;;;;26.60;15.25;;;2.70;99.90;;;;;;5056832;28;20055;-75
2024/01/10 01:53:41;;;;;;;18.50;11.90;;;2.70;99.90;;;;;;5054450;28;20044;-75
2024/01/10 01:56:07;;;;;;;22.30;12.68;;;2.60;99.90;;;;;;5057325;28;20028;-76
2024/01/10 01:58:34;;;;;;;21.98;12.35;;;2.50;99.90;;;;;;5056251;28;21241;-75
2024/01/10 02:01:02;;;;;;;18.60;12.10;;;2.50;99.90;;;;;;5054516;28;20047;-75
2024/01/10 02:03:27;;;;;;;19.70;12.30;;;2.50;99.90;;;;;;5058822;28;20392;-76
2024/01/10 02:05:54;;;;;;;23.55;13.38;;;2.60;99.90;;;;;;5059673;28;20040;-75
2024/01/10 02:08:20;;;;;;;22.70;12.27;;;2.50;99.90;;;;;;5055533;28;20081;-74
2024/01/10 02:10:46;;;;;;;20.23;13.35;;;2.50;99.90;;;;;;5059369;28;20056;-75
2024/01/10 02:13:12;;;;;;;19.40;11.77;;;2.40;99.90;;;;;;5062639;28;20032;-75
2024/01/10 02:15:38;;;;;;;20.73;13.48;;;2.30;99.90;;;;;;5055626;28;20114;-76
2024/01/10 02:18:05;;;;;;;25.98;15.40;;;2.30;99.90;;;;;;5054677;28;21720;-74
2024/01/10 02:20:31;;;;;;;21.30;12.50;;;2.20;99.90;;;;;;5053865;28;20036;-75
2024/01/10 02:22:57;;;;;;;23.75;12.68;;;2.20;99.90;;;;;;5055660;28;20036;-74
2024/01/10 02:25:23;;;;;;;20.30;12.70;;;2.20;99.90;;;;;;5055940;28;20041;-76
2024/01/10 02:27:48;;;;;;;24.58;14.32;;;2.10;99.90;;;;;;5053946;28;20089;-75
2024/01/10 02:30:14;;;;;;;21.73;14.10;;;2.20;99.90;;;;;;5054540;28;20627;-75
2024/01/10 02:32:40;;;;;;;28.52;13.55;;;2.10;99.90;;;;;;5059806;28;20040;-75
2024/01/10 02:35:06;;;;;;;20.23;12.68;;;2.10;99.90;;;;;;5056691;28;20518;-76
2024/01/10 02:37:32;;;;;;;20.27;13.13;;;2.10;99.90;;;;;;5054273;28;20047;-75
2024/01/10 02:39:58;;;;;;;26.45;13.38;;;2.20;99.90;;;;;;5065129;28;20036;-75
2024/01/10 02:42:23;;;;;;;19.80;12.35;;;2.20;99.90;;;;;;5063849;28;20121;-75
2024/01/10 02:44:49;;;;;;;25.60;14.02;;;2.20;99.90;;;;;;5062388;28;20032;-75
2024/01/10 02:47:15;;;;;;;24.70;14.00;;;2.20;99.90;;;;;;5068478;28;20133;-75
2024/01/10 02:49:41;;;;;;;23.27;12.77;;;2.20;99.90;;;;;;5061488;28;20577;-75
2024/01/10 02:52:06;;;;;;;22.17;14.35;;;2.20;99.90;;;;;;5066190;28;20032;-75
2024/01/10 02:54:32;;;;;;;25.00;13.73;;;2.10;99.90;;;;;;5068278;28;20024;-75
2024/01/10 02:56:58;;;;;;;22.58;14.30;;;2.20;99.90;;;;;;5068482;28;20099;-75
2024/01/10 02:59:23;;;;;;;21.40;12.45;;;2.20;99.90;;;;;;5055998;28;20063;-74
2024/01/10 03:01:49;;;;;;;24.10;14.25;;;2.20;99.90;;;;;;5054093;28;20041;-75
2024/01/10 03:04:15;;;;;;;24.45;13.80;;;2.30;99.90;;;;;;5066893;28;20032;-75
2024/01/10 03:06:40;;;;;;;24.17;13.70;;;2.30;99.90;;;;;;5064041;28;20044;-75
2024/01/10 03:09:06;;;;;;;24.25;13.13;;;2.30;99.90;;;;;;5062604;28;20019;-75
2024/01/10 03:11:33;;;;;;;24.13;14.48;;;2.40;99.90;;;;;;5062909;28;20118;-75
2024/01/10 03:14:04;;;;;;;21.67;13.77;;;2.40;99.90;;;;;;5072244;28;20429;-75
2024/01/10 03:16:30;;;;;;;27.90;14.15;;;2.40;99.90;;;;;;5068364;28;20036;-75
2024/01/10 03:18:56;;;;;;;19.95;12.98;;;2.40;99.90;;;;;;5058113;28;20060;-75
2024/01/10 03:21:26;;;;;;;19.77;12.15;;;2.40;99.90;;;;;;5069349;28;20165;-75
2024/01/10 03:23:56;;;;;;;23.23;13.10;;;2.50;99.90;;;;;;5068330;28;20036;-75
2024/01/10 03:26:22;;;;;;;23.83;13.70;;;2.50;99.90;;;;;;5064946;28;20385;-75
2024/01/10 03:28:48;;;;;;;19.58;11.93;;;2.50;99.90;;;;;;5072371;28;20040;-75
2024/01/10 03:31:14;;;;;;;23.70;12.82;;;2.50;99.90;;;;;;5064364;28;20032;-75
2024/01/10 03:33:40;;;;;;;19.13;12.10;;;2.60;99.90;;;;;;5061082;28;20302;-75
2024/01/10 03:36:07;;;;;;;21.98;13.40;;;2.60;99.90;;;;;;5066127;28;20036;-75
2024/01/10 03:38:32;;;;;;;24.42;13.50;;;2.60;99.90;;;;;;5068671;28;20036;-75
2024/01/10 03:40:58;;;;;;;19.13;12.23;;;2.60;99.90;;;;;;5059764;28;20097;-75
2024/01/10 03:43:24;;;;;;;21.55;14.40;;;2.60;99.90;;;;;;5064731;28;20037;-75
2024/01/10 03:45:49;;;;;;;21.85;12.35;;;2.60;99.90;;;;;;5063318;28;20045;-76
2024/01/10 03:48:15;;;;;;;22.67;12.77;;;2.70;99.90;;;;;;5064947;28;20047;-75
2024/01/10 03:50:41;;;;;;;20.35;12.02;;;2.70;99.90;;;;;;5063565;28;20029;-75
2024/01/10 03:53:06;;;;;;;22.15;13.70;;;2.70;99.90;;;;;;5063414;28;20094;-75
2024/01/10 03:55:32;;;;;;;21.40;12.98;;;2.80;99.90;;;;;;5063569;28;20046;-75
2024/01/10 03:57:58;;;;;;;18.83;12.15;;;2.80;99.90;;;;;;5059712;28;20063;-75
2024/01/10 04:00:24;;;;;;;22.30;13.65;;;2.80;99.90;;;;;;5063947;28;20486;-75
2024/01/10 04:02:50;;;;;;;20.33;12.38;;;2.80;99.90;;;;;;5054634;28;20035;-75
2024/01/10 04:05:16;;;;;;;21.48;13.68;;;2.80;99.90;;;;;;5056810;28;20039;-74
2024/01/10 04:07:44;;;;;;;22.40;13.30;;;2.80;99.90;;;;;;5061705;28;20033;-76
2024/01/10 04:10:13;;;;;;;19.63;12.32;;;2.80;99.90;;;;;;5059793;28;20131;-75
2024/01/10 04:12:40;;;;;;;23.55;14.07;;;2.80;99.90;;;;;;5063233;28;20451;-74
2024/01/10 04:15:06;;;;;;;23.58;13.27;;;2.80;99.90;;;;;;5056211;28;20034;-75
2024/01/10 04:17:32;;;;;;;21.70;14.00;;;2.80;99.90;;;;;;5054456;28;20665;-74
2024/01/10 04:19:58;;;;;;;26.13;14.40;;;2.80;99.90;;;;;;5051311;28;20115;-75
2024/01/10 04:22:24;;;;;;;22.67;14.38;;;2.80;99.90;;;;;;5057381;28;20032;-75
2024/01/10 04:24:50;;;;;;;20.83;12.75;;;2.90;99.90;;;;;;5060076;28;20047;-75
2024/01/10 04:27:17;;;;;;;20.70;13.60;;;2.90;99.90;;;;;;5061744;28;20127;-76
2024/01/10 04:29:43;;;;;;;24.38;13.75;;;2.90;99.90;;;;;;5061849;28;20401;-75
2024/01/10 04:32:09;;;;;;;21.63;12.98;;;2.90;99.90;;;;;;5052825;28;20028;-75
2024/01/10 04:34:35;;;;;;;21.85;13.65;;;3.00;99.90;;;;;;5063940;28;20048;-75
2024/01/10 04:37:01;;;;;;;24.25;13.93;;;3.00;99.90;;;;;;5058906;28;20033;-75
2024/01/10 04:39:26;;;;;;;25.33;14.07;;;3.00;99.90;;;;;;5061716;28;20592;-75
2024/01/10 04:41:52;;;;;;;21.05;13.90;;;3.00;99.90;;;;;;5068558;28;20055;-75
2024/01/10 04:44:18;;;;;;;24.35;14.65;;;3.00;99.90;;;;;;5060157;28;20048;-74
2024/01/10 04:46:43;;;;;;;23.67;13.30;;;3.10;99.90;;;;;;5054895;28;20115;-75
2024/01/10 04:49:09;;;;;;;23.05;14.57;;;3.00;99.90;;;;;;5068749;28;20028;-75
2024/01/10 04:51:35;;;;;;;25.70;13.25;;;3.10;99.90;;;;;;5063771;28;20545;-75
2024/01/10 04:54:01;;;;;;;25.58;14.98;;;3.00;99.90;;;;;;5059899;28;20067;-75
2024/01/10 04:56:26;;;;;;;23.05;14.50;;;3.10;99.90;;;;;;5056449;28;20036;-75
2024/01/10 04:58:52;;;;;;;26.08;15.25;;;3.00;99.90;;;;;;5063242;28;20036;-76
2024/01/10 05:01:18;;;;;;;26.58;15.43;;;3.10;99.90;;;;;;5055053;28;20617;-75
2024/01/10 05:03:44;;;;;;;26.42;13.35;;;3.10;99.90;;;;;;5066540;28;20494;-75
2024/01/10 05:06:10;;;;;;;25.30;14.48;;;3.10;99.90;;;;;;5057851;28;20089;-75
2024/01/10 05:08:36;;;;;;;24.48;13.85;;;3.20;99.90;;;;;;5049411;28;20151;-74
2024/01/10 05:11:02;;;;;;;25.83;15.18;;;3.20;99.90;;;;;;5054803;28;20048;-75
2024/01/10 05:13:28;;;;;;;25.90;15.73;;;3.20;99.90;;;;;;5060484;28;20166;-75
2024/01/10 05:15:54;;;;;;;25.23;16.90;;;3.30;99.90;;;;;;5048031;28;20050;-75
2024/01/10 05:18:20;;;;;;;27.17;16.50;;;3.30;99.90;;;;;;5055214;28;20029;-75
2024/01/10 05:20:46;;;;;;;26.15;15.93;;;3.30;99.90;;;;;;5055708;28;20034;-75
2024/01/10 05:23:12;;;;;;;31.00;17.45;;;3.30;99.90;;;;;;5056671;28;20036;-75
2024/01/10 05:25:37;;;;;;;28.17;17.50;;;3.30;99.90;;;;;;5055771;28;20093;-74
2024/01/10 05:28:03;;;;;;;27.88;15.82;;;3.30;99.90;;;;;;5061192;28;20060;-74
2024/01/10 05:30:30;;;;;;;28.00;16.60;;;3.30;99.90;;;;;;5064486;28;20552;-75
2024/01/10 05:32:55;;;;;;;26.30;14.75;;;3.30;99.90;;;;;;5059000;28;20042;-75
2024/01/10 05:35:21;;;;;;;22.90;14.20;;;3.40;99.90;;;;;;5061600;28;20068;-75
2024/01/10 05:37:47;;;;;;;24.48;13.88;;;3.40;99.90;;;;;;5058430;28;20194;-75
2024/01/10 05:40:12;;;;;;;23.38;14.00;;;3.40;99.90;;;;;;5048756;28;20071;-75
2024/01/10 05:42:38;;;;;;;26.70;16.00;;;3.30;99.90;;;;;;5054731;28;20036;-75
2024/01/10 05:45:05;;;;;;;27.35;14.93;;;3.20;99.90;;;;;;5051696;28;20028;-75
2024/01/10 05:47:31;;;;;;;24.17;14.77;;;3.20;99.90;;;;;;5066316;28;20094;-75
2024/01/10 05:49:57;;;;;;;24.33;13.85;;;3.10;99.90;;;;;;5053597;28;20033;-75
2024/01/10 05:52:22;;;;;;;23.65;15.50;;;3.10;99.90;;;;;;5058045;28;20039;-75
2024/01/10 05:54:48;;;;;;;23.98;14.82;;;3.10;99.90;;;;;;5065728;28;22823;-74
2024/01/10 05:57:17;;;;;;;21.63;13.55;;;3.10;99.90;;;;;;5056108;28;20107;-74
2024/01/10 05:59:42;;;;;;;21.63;13.10;;;3.10;99.90;;;;;;5063374;28;21004;-75
2024/01/10 06:02:08;;;;;;;21.38;12.77;;;3.10;99.90;;;;;;5057896;28;20475;-75
2024/01/10 06:04:33;;;;;;;21.27;13.38;;;3.10;99.90;;;;;;5055207;28;20466;-76
2024/01/10 06:07:00;;;;;;;23.45;13.82;;;3.10;99.90;;;;;;5062645;28;20135;-75
2024/01/10 06:09:25;;;;;;;21.17;12.88;;;3.20;99.90;;;;;;5055133;28;20062;-75
2024/01/10 06:11:51;;;;;;;22.95;13.13;;;3.20;99.90;;;;;;5055654;28;21408;-75
2024/01/10 06:14:17;;;;;;;22.67;13.02;;;3.20;99.90;;;;;;5058290;28;20028;-75
2024/01/10 06:16:44;;;;;;;22.42;13.25;;;3.20;99.90;;;;;;5060907;28;20029;-75
2024/01/10 06:19:11;;;;;;;23.08;13.38;;;3.20;99.90;;;;;;5057910;28;20033;-76
2024/01/10 06:21:37;;;;;;;22.75;11.90;;;3.20;99.90;;;;;;5054368;28;20043;-73
2024/01/10 06:24:03;;;;;;;24.30;12.63;;;3.20;99.90;;;;;;5048999;28;20036;-74
2024/01/10 06:26:28;;;;;;;24.33;15.50;;;3.30;99.90;;;;;;5066145;28;20044;-75
2024/01/10 06:28:54;;;;;;;24.42;13.65;;;3.10;99.90;;;;;;5054290;28;20471;-75
2024/01/10 06:31:20;;;;;;;22.27;13.13;;;3.00;99.90;;;;;;5059031;28;20119;-75
2024/01/10 06:33:46;;;;;;;21.27;13.13;;;3.10;99.90;;;;;;5053662;28;20103;-75
2024/01/10 06:36:12;;;;;;;23.15;14.00;;;3.10;99.90;;;;;;5052252;28;20030;-75
2024/01/10 06:38:40;;;;;;;22.27;14.27;;;3.10;99.90;;;;;;5049454;28;20028;-75
2024/01/10 06:41:09;;;;;;;24.45;14.88;;;3.10;99.90;;;;;;5054867;28;20062;-75
2024/01/10 06:43:36;;;;;;;24.33;13.98;;;3.10;99.90;;;;;;5066126;28;20162;-75
2024/01/10 06:46:03;;;;;;;24.95;14.75;;;3.20;99.90;;;;;;5057168;28;20441;-74
2024/01/10 06:48:29;;;;;;;23.08;14.02;;;3.20;99.90;;;;;;5065949;28;20316;-73
2024/01/10 06:50:57;;;;;;;21.55;13.48;;;3.20;99.90;;;;;;5064269;28;20036;-74
2024/01/10 06:53:24;;;;;;;22.25;13.25;;;3.20;99.90;;;;;;5072115;28;21022;-73
2024/01/10 06:55:49;;;;;;;21.55;13.45;;;3.20;99.90;;;;;;5058075;28;20054;-74
2024/01/10 06:58:15;;;;;;;23.52;13.85;;;3.20;99.90;;;;;;5059126;28;20609;-73
2024/01/10 07:00:41;;;;;;;22.90;14.02;;;3.10;99.90;;;;;;5059766;28;20085;-73
2024/01/10 07:03:07;;;;;;;21.27;13.80;;;3.20;99.90;;;;;;5053250;28;20277;-73
2024/01/10 07:05:33;;;;;;;21.35;15.30;;;3.10;99.90;;;;;;5048511;28;20044;-73
2024/01/10 07:08:02;;;;;;;23.67;14.90;;;2.90;99.90;;;;;;5050930;28;20032;-73
2024/01/10 07:10:28;;;;;;;24.10;16.17;;;2.80;99.90;;;;;;5062950;28;20129;-74
2024/01/10 07:12:55;;;;;;;26.33;15.98;;;2.80;99.90;;;;;;5053345;28;20646;-73
2024/01/10 07:15:21;;;;;;;23.60;14.23;;;2.60;99.90;;;;;;5050703;28;20564;-73
2024/01/10 07:17:47;;;;;;;24.60;14.52;;;2.80;99.90;;;;;;5056571;28;20757;-74
2024/01/10 07:20:12;;;;;;;25.45;15.43;;;2.80;99.90;;;;;;5056760;28;20639;-73
2024/01/10 07:22:43;;;;;;;25.02;15.65;;;2.80;99.90;;;;;;5062237;28;20503;-74
2024/01/10 07:25:14;;;;;;;23.42;15.15;;;2.80;99.90;;;;;;5056360;28;20028;-73
2024/01/10 07:27:43;;;;;;;26.40;15.30;;;2.90;99.90;;;;;;5057889;28;20167;-74
2024/01/10 07:30:15;;;;;;;21.88;14.82;;;3.00;99.90;;;;;;5056633;28;20075;-75
2024/01/10 07:32:41;;;;;;;23.27;14.20;;;3.10;99.90;;;;;;5051319;28;21185;-74
2024/01/10 07:35:09;;;;;;;27.90;15.95;;;3.20;99.90;;;;;;5055629;28;20059;-73
2024/01/10 07:37:39;;;;;;;25.17;15.85;;;3.20;99.90;;;;;;5062632;28;20946;-74
2024/01/10 07:40:06;;;;;;;25.27;15.23;;;3.20;99.90;;;;;;5054579;28;20070;-73
2024/01/10 07:42:33;;;;;;;25.05;14.73;;;3.20;99.90;;;;;;5056665;28;20042;-74
2024/01/10 07:44:59;;;;;;;25.02;16.02;;;3.30;99.90;;;;;;5058195;28;20041;-74
2024/01/10 07:47:25;;;;;;;23.85;15.65;;;3.30;99.90;;;;;;5048685;28;20052;-73
2024/01/10 07:49:51;;;;;;;23.55;15.23;;;3.30;99.90;;;;;;5060643;28;20029;-73
2024/01/10 07:52:17;;;;;;;24.67;14.77;;;3.30;99.90;;;;;;5057201;28;20062;-74
2024/01/10 07:54:42;;;;;;;24.52;13.98;;;3.30;99.90;;;;;;5054875;28;20432;-74
2024/01/10 07:57:08;;;;;;;25.30;15.02;;;3.40;99.90;;;;;;5053189;28;20063;-74
2024/01/10 07:59:34;;;;;;;24.40;14.13;;;3.50;99.90;;;;;;5057015;28;21188;-74
2024/01/10 08:02:00;;;;;;;20.85;13.65;;;3.40;99.90;;;;;;5056945;28;21213;-74
2024/01/10 08:04:29;;;;;;;27.83;15.35;;;3.50;99.90;;;;;;5050100;28;20062;-73
2024/01/10 08:06:55;;;;;;;25.30;15.15;;;3.40;99.90;;;;;;5054470;28;20044;-73
2024/01/10 08:09:21;;;;;;;76.72;40.05;;;3.50;99.90;;;;;;5059000;28;20043;-73
2024/01/10 08:11:50;;;;;;;35.00;21.23;;;3.50;99.90;;;;;;5051443;28;20068;-73
2024/01/10 08:14:16;;;;;;;31.45;19.48;;;3.50;99.90;;;;;;5064578;28;20934;-74
2024/01/10 08:16:42;;;;;;;28.77;18.15;;;3.50;99.90;;;;;;5056253;28;20033;-74
2024/01/10 08:19:08;;;;;;;26.55;15.65;;;3.60;99.90;;;;;;5059746;28;20066;-75
2024/01/10 08:21:34;;;;;;;27.92;17.45;;;3.60;99.90;;;;;;5057642;28;20032;-74
2024/01/10 08:24:02;;;;;;;27.30;15.02;;;3.70;99.90;;;;;;5052687;28;20040;-73
2024/01/10 08:26:28;;;;;;;25.60;14.82;;;3.80;99.90;;;;;;5054694;28;20105;-74
2024/01/10 08:28:54;;;;;;;25.25;14.80;;;3.80;99.90;;;;;;5049790;28;20119;-73
2024/01/10 08:31:20;;;;;;;26.08;15.65;;;3.80;99.90;;;;;;5049200;28;20095;-72
2024/01/10 08:33:46;;;;;;;25.33;14.65;;;3.90;99.90;;;;;;5054392;28;20032;-73
2024/01/10 08:36:14;;;;;;;29.20;16.35;;;3.90;99.90;;;;;;5062106;28;20119;-72
2024/01/10 08:38:40;;;;;;;25.75;15.43;;;3.90;99.90;;;;;;5051927;28;20112;-72
2024/01/10 08:41:08;;;;;;;25.95;16.27;;;3.90;99.90;;;;;;5059277;28;20028;-73
2024/01/10 08:43:34;;;;;;;25.50;16.17;;;3.90;99.90;;;;;;5052530;28;20037;-73
2024/01/10 08:46:00;;;;;;;24.27;16.42;;;3.90;99.90;;;;;;5056571;28;20496;-71
2024/01/10 08:48:26;;;;;;;21.95;13.52;;;4.00;99.90;;;;;;5061946;28;20036;-72
2024/01/10 08:50:54;;;;;;;25.77;13.85;;;4.00;99.90;;;;;;5043550;28;20627;-71
2024/01/10 08:53:19;;;;;;;24.33;14.43;;;4.10;99.90;;;;;;5050001;28;20066;-71
2024/01/10 08:55:47;;;;;;;24.10;14.43;;;4.00;99.90;;;;;;5061570;28;20165;-72
2024/01/10 08:58:12;;;;;;;28.15;15.65;;;3.80;99.90;;;;;;5049963;28;20604;-71
2024/01/10 09:00:38;;;;;;;27.02;14.98;;;3.80;99.90;;;;;;5050982;28;20062;-71
2024/01/10 09:03:04;;;;;;;24.55;15.10;;;3.80;99.90;;;;;;5054118;28;20040;-70
2024/01/10 09:05:30;;;;;;;28.20;15.80;;;3.90;99.90;;;;;;5050983;28;20184;-70
2024/01/10 09:07:56;;;;;;;22.02;14.57;;;3.90;99.90;;;;;;5053534;28;20037;-71
2024/01/10 09:10:22;;;;;;;22.75;15.70;;;4.00;99.90;;;;;;5060087;28;20053;-70
2024/01/10 09:12:48;;;;;;;26.42;15.27;;;4.00;99.90;;;;;;5057366;28;20060;-71
2024/01/10 09:15:14;;;;;;;25.60;15.75;;;4.00;99.90;;;;;;5066018;28;21259;-72
2024/01/10 09:17:44;;;;;;;25.67;15.82;;;4.00;99.90;;;;;;5047557;28;20641;-71
2024/01/10 09:20:11;;;;;;;22.45;14.88;;;4.00;99.90;;;;;;5060345;28;21228;-72
2024/01/10 09:22:40;;;;;;;30.05;16.08;;;4.20;99.90;;;;;;5064934;28;20047;-72
2024/01/10 09:25:06;;;;;;;25.80;16.60;;;4.30;99.90;;;;;;5055017;28;21483;-71
2024/01/10 09:27:36;;;;;;;25.10;14.93;;;4.30;99.90;;;;;;5053403;28;20130;-72
2024/01/10 09:30:04;;;;;;;23.20;14.52;;;4.30;99.90;;;;;;5061415;28;20056;-71
2024/01/10 09:32:30;;;;;;;30.58;16.63;;;4.30;99.90;;;;;;5052337;28;20481;-70
2024/01/10 09:34:56;;;;;;;24.65;15.68;;;4.30;99.90;;;;;;5054592;28;20032;-71
2024/01/10 09:37:23;;;;;;;25.65;16.48;;;4.10;99.90;;;;;;5053303;28;20044;-72
2024/01/10 09:39:49;;;;;;;29.38;16.88;;;3.90;99.90;;;;;;5055603;28;20033;-72
2024/01/10 09:42:15;;;;;;;26.15;16.13;;;4.00;99.90;;;;;;5055546;28;20651;-71
2024/01/10 09:44:41;;;;;;;27.77;16.27;;;3.90;99.90;;;;;;5062312;28;20042;-71
2024/01/10 09:47:08;;;;;;;23.48;15.85;;;3.90;99.90;;;;;;5054906;28;20051;-72
2024/01/10 09:49:34;;;;;;;27.83;15.02;;;4.00;99.90;;;;;;5049183;28;20062;-71
2024/01/10 09:52:03;;;;;;;25.40;15.93;;;3.90;99.90;;;;;;5054630;28;20498;-71
2024/01/10 09:54:30;;;;;;;31.02;16.33;;;3.90;99.90;;;;;;5053931;28;20039;-71
2024/01/10 09:56:59;;;;;;;27.05;18.08;;;4.10;99.90;;;;;;5048266;28;20083;-71
2024/01/10 09:59:25;;;;;;;23.50;15.02;;;4.20;99.90;;;;;;5050980;28;20037;-71
2024/01/10 10:01:56;;;;;;;25.92;16.67;;;4.10;99.90;;;;;;5049418;28;20037;-72
2024/01/10 10:04:25;;;;;;;24.23;16.10;;;4.20;99.90;;;;;;5047128;28;20051;-71
2024/01/10 10:06:59;;;;;;;28.58;17.20;;;4.20;99.90;;;;;;5047276;28;20608;-70
2024/01/10 10:09:28;;;;;;;27.45;16.83;;;4.20;99.90;;;;;;5054502;28;20816;-70
2024/01/10 10:11:59;;;;;;;31.30;16.60;;;4.30;99.90;;;;;;5051443;28;20071;-71
2024/01/10 10:14:29;;;;;;;25.55;15.80;;;4.30;99.90;;;;;;5054145;28;20044;-72
2024/01/10 10:16:54;;;;;;;25.55;17.15;;;4.40;99.90;;;;;;5051847;28;20550;-70
2024/01/10 10:19:24;;;;;;;29.70;18.95;;;4.40;99.90;;;;;;5060167;28;20036;-70
2024/01/10 10:21:50;;;;;;;29.10;17.50;;;4.20;99.90;;;;;;5060521;28;20126;-71
2024/01/10 10:24:17;;;;;;;26.77;17.38;;;4.20;99.90;;;;;;5050911;28;20040;-71
2024/01/10 10:26:42;;;;;;;26.10;16.55;;;4.10;99.90;;;;;;5065767;28;20063;-72
2024/01/10 10:29:09;;;;;;;30.90;18.38;;;4.10;99.90;;;;;;5058422;28;20036;-72
2024/01/10 10:31:35;;;;;;;28.67;18.17;;;4.30;99.90;;;;;;5056885;28;20040;-71
2024/01/10 10:34:04;;;;;;;27.50;17.15;;;4.30;99.90;;;;;;5060294;28;20521;-72
2024/01/10 10:36:31;;;;;;;24.42;15.35;;;4.30;99.90;;;;;;5051176;28;20036;-71
2024/01/10 10:39:01;;;;;;;25.38;15.77;;;4.30;99.90;;;;;;5063064;28;20071;-72
2024/01/10 10:41:29;;;;;;;27.42;17.15;;;4.30;99.90;;;;;;5060840;28;20082;-72
2024/01/10 10:43:55;;;;;;;27.00;16.08;;;4.30;99.90;;;;;;5058419;28;20043;-71
2024/01/10 10:46:23;;;;;;;30.65;17.17;;;4.30;99.90;;;;;;5069208;28;20082;-72
2024/01/10 10:48:49;;;;;;;31.20;19.23;;;4.30;99.90;;;;;;5053395;28;20523;-72
2024/01/10 10:51:33;;;;;;;54.22;32.33;;;4.40;99.90;;;;;;5051383;28;20036;-72
2024/01/10 10:53:59;;;;;;;37.38;24.55;;;4.30;99.90;;;;;;5054074;28;20079;-72
2024/01/10 10:56:32;;;;;;;39.97;22.83;;;4.30;99.90;;;;;;5067530;28;20066;-72
2024/01/10 10:59:00;;;;;;;39.85;23.15;;;4.40;99.90;;;;;;5055093;28;20076;-71
2024/01/10 11:01:27;;;;;;;39.20;24.95;;;4.40;99.90;;;;;;5058064;28;20117;-72
2024/01/10 11:03:54;;;;;;;31.13;19.20;;;4.30;99.90;;;;;;5050191;28;21132;-71
2024/01/10 11:06:22;;;;;;;56.38;30.92;;;4.40;99.90;;;;;;5061324;28;20036;-72
2024/01/10 11:08:53;;;;;;;46.00;27.30;;;4.50;99.90;;;;;;5055781;28;20044;-71
2024/01/10 11:11:45;;;;;;;35.85;20.65;;;4.80;99.90;;;;;;5058901;28;20154;-72
2024/01/10 11:14:32;;;;;;;33.85;22.55;;;4.70;99.90;;;;;;5057984;28;20443;-73
2024/01/10 11:17:14;;;;;;;34.30;22.92;;;4.70;99.90;;;;;;5059887;28;20572;-71
2024/01/10 11:19:52;;;;;;;35.50;21.50;;;4.70;99.90;;;;;;5055273;28;20032;-72
2024/01/10 11:22:32;;;;;;;31.10;19.98;;;4.90;99.90;;;;;;5057513;28;20036;-72
2024/01/10 11:24:58;;;;;;;37.42;23.10;;;5.00;99.90;;;;;;5063364;28;20035;-72
2024/01/10 11:27:26;;;;;;;31.52;20.42;;;5.20;99.90;;;;;;5062933;28;20106;-72
2024/01/10 11:29:52;;;;;;;33.80;20.95;;;5.20;99.90;;;;;;5049462;28;20414;-71
2024/01/10 11:32:23;;;;;;;34.75;19.98;;;5.20;99.90;;;;;;5049886;28;20029;-71
2024/01/10 11:34:59;;;;;;;30.25;19.33;;;5.30;99.90;;;;;;5055722;28;20040;-71
2024/01/10 11:37:45;;;;;;;42.63;20.85;;;5.20;99.90;;;;;;5060458;28;20063;-71
2024/01/10 11:40:12;;;;;;;30.83;20.13;;;5.10;99.90;;;;;;5050857;28;20062;-71
2024/01/10 11:42:48;;;;;;;29.13;17.75;;;5.10;99.90;;;;;;5059474;28;20358;-72
2024/01/10 11:45:37;;;;;;;32.55;19.60;;;5.20;99.90;;;;;;5064467;28;20544;-72
2024/01/10 11:48:03;;;;;;;28.05;17.90;;;5.30;99.90;;;;;;5060223;28;20101;-71
2024/01/10 11:50:31;;;;;;;30.17;18.30;;;5.50;99.90;;;;;;5052842;28;20441;-72
2024/01/10 11:52:56;;;;;;;31.85;19.30;;;5.50;99.90;;;;;;5062788;28;20044;-71
2024/01/10 11:55:51;;;;;;;29.58;19.13;;;5.50;99.90;;;;;;5049155;28;20032;-72
2024/01/10 11:58:17;;;;;;;29.88;19.38;;;5.30;99.90;;;;;;5044591;28;20041;-71
2024/01/10 12:00:44;;;;;;;29.25;19.25;;;5.40;99.90;;;;;;5048424;28;20039;-72
2024/01/10 12:03:12;;;;;;;30.10;19.00;;;5.40;99.90;;;;;;5053475;28;20050;-72
2024/01/10 12:05:38;;;;;;;30.63;18.38;;;5.50;99.90;;;;;;5049709;28;20048;-71
2024/01/10 12:08:08;;;;;;;27.95;18.15;;;5.50;99.90;;;;;;5055059;28;20040;-72
2024/01/10 12:10:36;;;;;;;30.38;18.95;;;5.50;99.90;;;;;;5053889;28;20433;-72
2024/01/10 12:13:03;;;;;;;26.23;16.05;;;5.60;99.90;;;;;;5061625;28;20046;-72
2024/01/10 12:15:29;;;;;;;28.77;17.85;;;5.60;99.90;;;;;;5059198;28;20043;-71
2024/01/10 12:17:55;;;;;;;31.60;18.48;;;5.60;99.90;;;;;;5063139;28;20032;-72
2024/01/10 12:20:21;;;;;;;28.90;17.70;;;5.80;99.90;;;;;;5057428;28;20719;-72
2024/01/10 12:22:47;;;;;;;32.22;19.20;;;5.70;99.90;;;;;;5058084;28;20039;-71
2024/01/10 12:25:13;;;;;;;30.10;17.42;;;5.60;99.90;;;;;;5057071;28;20558;-72
2024/01/10 12:27:39;;;;;;;28.35;16.60;;;5.60;99.90;;;;;;5064134;28;20059;-72
2024/01/10 12:30:05;;;;;;;29.83;17.65;;;5.60;99.90;;;;;;5053116;28;20455;-71
2024/01/10 12:32:31;;;;;;;27.83;17.00;;;5.50;99.90;;;;;;5055991;28;20094;-72
2024/01/10 12:35:05;;;;;;;26.02;16.13;;;5.70;99.90;;;;;;5050095;28;20115;-72